createdAt,value
2023-02-09T00:00:38.042Z,2.58
2023-02-09T00:07:39.658Z,2.68
2023-02-09T00:14:41.198Z,2.69
2023-02-09T00:21:42.849Z,2.67
2023-02-09T00:28:44.395Z,2.95
2023-02-09T00:35:46.927Z,2.75
2023-02-09T00:42:49.433Z,2.67
2023-02-09T00:49:52.095Z,2.59
2023-02-09T00:56:54.034Z,2.53
2023-02-09T01:03:56.019Z,2.44
2023-02-09T01:10:57.557Z,2.50
2023-02-09T01:17:59.270Z,2.39
2023-02-09T01:25:00.852Z,2.29
2023-02-09T01:32:02.568Z,2.25
2023-02-09T01:39:04.365Z,2.28
2023-02-09T01:46:05.928Z,2.22
2023-02-09T01:53:08.342Z,2.29
2023-02-09T02:00:12.415Z,2.06
2023-02-09T02:07:21.684Z,2.03
2023-02-09T02:14:36.979Z,2.18
2023-02-09T02:22:19.301Z,2.25
2023-02-09T02:29:24.143Z,2.19
2023-02-09T02:36:30.373Z,1.95
2023-02-09T02:43:49.444Z,1.89
2023-02-09T02:50:54.829Z,1.85
2023-02-09T02:57:57.380Z,1.80
2023-02-09T03:04:59.068Z,1.85
2023-02-09T03:12:05.877Z,1.49
2023-02-09T03:19:23.193Z,1.58
2023-02-09T03:26:40.131Z,1.62
2023-02-09T03:33:41.702Z,1.51
2023-02-09T03:40:43.584Z,1.53
2023-02-09T03:47:45.339Z,1.59
2023-02-09T03:54:47.770Z,1.49
2023-02-09T04:01:49.333Z,1.73
2023-02-09T04:08:50.884Z,1.45
2023-02-09T04:15:52.491Z,1.58
2023-02-09T04:22:54.049Z,1.35
2023-02-09T04:29:55.648Z,1.42
2023-02-09T04:36:57.195Z,1.73
2023-02-09T04:43:58.760Z,1.45
2023-02-09T04:51:00.320Z,1.73
2023-02-09T04:58:20.389Z,1.83
2023-02-09T05:05:21.934Z,1.69
2023-02-09T05:12:23.444Z,1.67
2023-02-09T05:19:24.996Z,1.35
2023-02-09T05:26:26.580Z,1.59
2023-02-09T05:33:28.190Z,1.55
2023-02-09T05:40:29.748Z,1.65
2023-02-09T05:47:31.326Z,1.46
2023-02-09T05:54:32.918Z,1.53
2023-02-09T06:01:34.741Z,1.52
2023-02-09T06:08:36.307Z,1.61
2023-02-09T06:15:37.932Z,1.69
2023-02-09T06:22:39.481Z,1.50
2023-02-09T06:29:41.031Z,1.71
2023-02-09T06:36:42.548Z,1.19
2023-02-09T06:43:44.129Z,1.36
2023-02-09T06:50:45.988Z,1.39
2023-02-09T06:57:47.977Z,1.62
2023-02-09T07:04:49.502Z,1.53
2023-02-09T07:11:51.108Z,1.60
2023-02-09T07:18:52.654Z,1.87
2023-02-09T07:25:54.195Z,2.13
2023-02-09T07:32:55.743Z,2.41
2023-02-09T07:39:57.256Z,2.29
2023-02-09T07:46:58.778Z,2.37
2023-02-09T07:54:00.374Z,2.32
2023-02-09T08:01:05.893Z,2.16
2023-02-09T08:08:07.460Z,2.41
2023-02-09T08:15:09.167Z,2.45
2023-02-09T08:22:10.687Z,2.81
2023-02-09T08:29:12.237Z,2.96
2023-02-09T08:36:13.924Z,3.00
2023-02-09T08:43:15.431Z,3.42
2023-02-09T08:50:17.052Z,3.51
2023-02-09T08:57:18.622Z,4.04
2023-02-09T09:04:23.772Z,4.40
2023-02-09T09:11:25.443Z,4.28
2023-02-09T09:18:27.044Z,4.51
2023-02-09T09:25:28.784Z,5.22
2023-02-09T09:32:30.473Z,5.71
2023-02-09T09:39:32.182Z,6.00
2023-02-09T09:46:36.821Z,5.89
2023-02-09T09:53:38.662Z,5.96
2023-02-09T10:00:40.781Z,5.65
2023-02-09T10:07:43.374Z,5.67
2023-02-09T10:14:45.029Z,5.62
2023-02-09T10:21:46.632Z,5.38
2023-02-09T10:28:53.149Z,5.78
2023-02-09T10:35:56.870Z,5.55
2023-02-09T10:43:02.660Z,6.04
2023-02-09T10:50:19.583Z,6.20
2023-02-09T10:57:21.030Z,6.35
2023-02-09T11:04:24.627Z,6.30
2023-02-09T11:11:34.130Z,6.32
2023-02-09T11:18:35.679Z,6.38
2023-02-09T11:26:00.607Z,6.24
2023-02-09T11:33:20.745Z,6.48
2023-02-09T11:40:45.054Z,6.48
2023-02-09T11:48:09.323Z,6.42
2023-02-09T11:55:29.343Z,6.63
2023-02-09T12:02:53.455Z,6.63
2023-02-09T12:10:19.417Z,6.30
2023-02-09T12:17:39.290Z,6.69
2023-02-09T12:24:40.834Z,6.73
2023-02-09T12:32:04.072Z,6.75
2023-02-09T12:39:23.768Z,7.11
2023-02-09T12:46:28.394Z,6.82
2023-02-09T12:53:32.346Z,6.73
2023-02-09T13:00:34.031Z,6.94
2023-02-09T13:07:41.295Z,6.85
2023-02-09T13:14:43.395Z,7.08
2023-02-09T13:22:30.023Z,7.37
2023-02-09T13:29:32.017Z,7.48
2023-02-09T13:36:41.821Z,7.11
2023-02-09T13:43:44.302Z,7.30
2023-02-09T13:50:48.913Z,7.26
2023-02-09T13:57:57.952Z,7.23
2023-02-09T14:04:59.537Z,7.26
2023-02-09T14:12:03.472Z,6.95
2023-02-09T14:19:26.232Z,7.01
2023-02-09T14:27:03.710Z,7.23
2023-02-09T14:34:05.230Z,7.04
2023-02-09T14:41:24.786Z,7.06
2023-02-09T14:48:29.817Z,7.07
2023-02-09T14:55:32.061Z,7.01
2023-02-09T15:02:33.715Z,6.91
2023-02-09T15:09:36.465Z,6.73
2023-02-09T15:16:38.032Z,6.55
2023-02-09T15:23:39.547Z,6.72
2023-02-09T15:30:41.257Z,6.41
2023-02-09T15:37:43.115Z,6.44
2023-02-09T15:45:03.311Z,6.34
2023-02-09T15:52:04.959Z,6.21
2023-02-09T15:59:06.561Z,6.27
2023-02-09T16:06:24.610Z,6.05
2023-02-09T16:13:26.710Z,5.98
2023-02-09T16:20:28.259Z,5.89
2023-02-09T16:27:29.842Z,5.89
2023-02-09T16:34:31.367Z,5.72
2023-02-09T16:42:02.059Z,5.70
2023-02-09T16:49:04.012Z,5.69
2023-02-09T16:56:09.967Z,5.56
2023-02-09T17:03:15.350Z,5.61
2023-02-09T17:10:17.459Z,5.71
2023-02-09T17:17:20.069Z,5.52
2023-02-09T17:24:22.034Z,5.74
2023-02-09T17:31:26.277Z,5.81
2023-02-09T17:38:32.821Z,5.61
2023-02-09T17:45:35.118Z,5.60
2023-02-09T17:52:36.757Z,5.76
2023-02-09T17:59:38.315Z,5.70
2023-02-09T18:06:40.705Z,5.77
2023-02-09T18:13:42.258Z,5.75
2023-02-09T18:20:43.927Z,5.72
2023-02-09T18:27:45.601Z,5.64
2023-02-09T18:34:47.121Z,5.45
2023-02-09T18:41:54.077Z,5.60
2023-02-09T18:48:56.188Z,5.41
2023-02-09T18:55:57.877Z,5.41
2023-02-09T19:02:59.637Z,5.47
2023-02-09T19:10:04.848Z,5.13
2023-02-09T19:17:07.135Z,5.27
2023-02-09T19:24:08.692Z,5.47
2023-02-09T19:31:14.944Z,5.19
2023-02-09T19:38:16.770Z,5.31
2023-02-09T19:45:18.336Z,5.22
2023-02-09T19:52:19.932Z,5.33
2023-02-09T19:59:21.595Z,4.99
2023-02-09T20:06:23.316Z,5.17
2023-02-09T20:13:25.123Z,5.03
2023-02-09T20:20:26.766Z,4.97
2023-02-09T20:27:29.004Z,4.98
2023-02-09T20:34:30.591Z,4.98
2023-02-09T20:41:32.309Z,4.74
2023-02-09T20:48:33.868Z,4.71
2023-02-09T20:55:35.470Z,4.67
2023-02-09T21:02:37.409Z,4.67
2023-02-09T21:09:39.181Z,4.78
2023-02-09T21:16:42.638Z,4.87
2023-02-09T21:23:45.055Z,4.66
2023-02-09T21:30:46.915Z,4.68
2023-02-09T21:37:48.749Z,4.54
2023-02-09T21:44:50.297Z,4.65
2023-02-09T21:51:51.826Z,4.82
2023-02-09T21:58:53.363Z,4.62
2023-02-09T22:05:58.527Z,4.48
2023-02-09T22:13:00.125Z,4.76
2023-02-09T22:20:01.679Z,4.77
2023-02-09T22:27:03.479Z,4.92
2023-02-09T22:34:07.129Z,5.05
2023-02-09T22:41:21.167Z,5.12
2023-02-09T22:48:22.812Z,5.16
2023-02-09T22:55:24.397Z,5.16
2023-02-09T23:02:25.952Z,5.22
2023-02-09T23:09:27.545Z,5.13
2023-02-09T23:16:29.495Z,5.25
2023-02-09T23:23:31.148Z,5.32
2023-02-09T23:30:32.677Z,5.17
2023-02-09T23:37:38.263Z,5.42
2023-02-09T23:44:40.030Z,5.47
2023-02-09T23:51:41.615Z,5.48
2023-02-09T23:58:44.995Z,5.67
